CheckWX is a tool to help pilots better visualize weather data.  It is not intended as a substitute for an official pre-flight weather briefing.

08:27:43 UTC

KSAW METAR
Sawyer International Airport
Marquette, Michigan, USA
Current

30 mins ago

KSAW 220758Z AUTO 25004KT 10SM OVC023 M07/M08 A3030 RMK AO2 T10661083
Observed
Feb-22 @ 07:58 UTC
Wind
  • 250° at 4 KTS
Visibility
10 SM
Flight Rules
MVFR
Cloud Levels
  • Overcast at 2,300' AGL
Temperature
-7°C / 19°F
Dewpoint
-8°C / 18°F
Humidity
93%
Altimeter
30.3" Hg
Pressure
1026.12 hPa
Previous

49 mins ago

KSAW 220739Z AUTO 24004KT 10SM OVC023 M07/M08 A3029 RMK AO2 T10671085
Observed
Feb-22 @ 07:39 UTC
Wind
  • 240° at 4 KTS
Visibility
10 SM
Flight Rules
MVFR
Cloud Levels
  • Overcast at 2,300' AGL
Temperature
-7°C / 19°F
Dewpoint
-9°C / 16°F
Humidity
86%
Altimeter
30.29" Hg
Pressure
1025.72 hPa
Previous

1 hour ago

KSAW 220718Z AUTO 00000KT 10SM OVC023 M07/M08 A3028 RMK AO2 T10681080
Observed
Feb-22 @ 07:18 UTC
Visibility
10 SM
Flight Rules
MVFR
Cloud Levels
  • Overcast at 2,300' AGL
Temperature
-7°C / 19°F
Dewpoint
-8°C / 18°F
Humidity
93%
Altimeter
30.28" Hg
Pressure
1025.42 hPa